createdAt,value
2018-10-03T00:00:21.052Z,16.30
2018-10-03T00:02:48.484Z,16.30
2018-10-03T00:05:15.948Z,16.30
2018-10-03T00:07:43.357Z,16.30
2018-10-03T00:10:10.789Z,16.30
2018-10-03T00:12:38.183Z,16.30
2018-10-03T00:15:05.673Z,16.30
2018-10-03T00:17:33.093Z,16.30
2018-10-03T00:20:00.555Z,16.30
2018-10-03T00:22:28.049Z,16.30
2018-10-03T00:24:55.445Z,16.30
2018-10-03T00:27:22.867Z,16.30
2018-10-03T00:29:50.293Z,16.30
2018-10-03T00:32:17.790Z,16.30
2018-10-03T00:34:45.205Z,16.30
2018-10-03T00:37:12.660Z,16.30
2018-10-03T00:39:40.045Z,16.30
2018-10-03T00:42:07.479Z,16.30
2018-10-03T00:44:34.895Z,16.30
2018-10-03T00:47:02.302Z,16.30
2018-10-03T00:49:29.683Z,16.30
2018-10-03T00:51:57.106Z,16.30
2018-10-03T00:54:24.522Z,16.30
2018-10-03T00:56:51.977Z,16.30
2018-10-03T00:59:19.458Z,16.30
2018-10-03T01:01:46.870Z,16.30
2018-10-03T01:04:14.287Z,16.30
2018-10-03T01:06:41.692Z,16.20
2018-10-03T01:09:09.145Z,16.30
2018-10-03T01:11:36.564Z,16.30
2018-10-03T01:14:04.019Z,16.30
2018-10-03T01:16:31.747Z,16.30
2018-10-03T01:18:59.218Z,16.30
2018-10-03T01:21:26.660Z,16.30
2018-10-03T01:23:54.050Z,16.30
2018-10-03T01:26:21.500Z,16.30
2018-10-03T01:28:48.963Z,16.40
2018-10-03T01:31:16.384Z,16.20
2018-10-03T01:33:43.862Z,16.30
2018-10-03T01:36:11.403Z,16.30
2018-10-03T01:38:38.932Z,16.30
2018-10-03T01:41:06.354Z,16.20
2018-10-03T01:43:33.802Z,16.20
2018-10-03T01:46:01.212Z,16.20
2018-10-03T01:48:28.670Z,16.20
2018-10-03T01:50:56.091Z,16.20
2018-10-03T01:53:23.484Z,16.20
2018-10-03T01:55:50.912Z,16.20
2018-10-03T01:58:19.232Z,16.20
2018-10-03T02:00:46.610Z,16.20
2018-10-03T02:03:13.994Z,16.20
2018-10-03T02:05:41.488Z,16.20
2018-10-03T02:08:08.954Z,16.20
2018-10-03T02:10:36.487Z,16.20
2018-10-03T02:13:03.942Z,16.30
2018-10-03T02:15:31.354Z,16.30
2018-10-03T02:17:58.809Z,16.30
2018-10-03T02:20:26.224Z,16.30
2018-10-03T02:22:53.619Z,16.30
2018-10-03T02:25:21.077Z,16.30
2018-10-03T02:27:48.497Z,16.40
2018-10-03T02:30:15.956Z,16.40
2018-10-03T02:32:43.484Z,16.40
2018-10-03T02:35:10.978Z,16.40
2018-10-03T02:37:38.399Z,16.40
2018-10-03T02:40:05.891Z,16.40
2018-10-03T02:42:33.321Z,16.40
2018-10-03T02:45:00.757Z,16.40
2018-10-03T02:47:28.191Z,16.40
2018-10-03T02:49:55.620Z,16.50
2018-10-03T02:52:23.084Z,16.50
2018-10-03T02:54:50.466Z,16.50
2018-10-03T02:57:17.911Z,16.50
2018-10-03T02:59:45.361Z,16.50
2018-10-03T03:02:12.804Z,16.50
2018-10-03T03:04:40.256Z,16.50
2018-10-03T03:07:07.758Z,16.40
2018-10-03T03:09:35.172Z,16.40
2018-10-03T03:12:02.595Z,16.40
2018-10-03T03:14:29.998Z,16.40
2018-10-03T03:17:03.593Z,16.40
2018-10-03T03:19:31.015Z,16.40
2018-10-03T03:21:58.437Z,16.40
2018-10-03T03:24:25.877Z,16.40
2018-10-03T03:26:53.276Z,16.40
2018-10-03T03:29:20.725Z,16.40
2018-10-03T03:31:48.117Z,16.40
2018-10-03T03:34:15.546Z,16.40
2018-10-03T03:36:42.967Z,16.40
2018-10-03T03:39:10.395Z,16.40
2018-10-03T03:41:38.196Z,16.40
2018-10-03T03:44:05.821Z,16.40
2018-10-03T03:46:33.240Z,16.40
2018-10-03T03:49:00.663Z,16.40
2018-10-03T03:51:28.062Z,16.40
2018-10-03T03:53:55.529Z,16.40
2018-10-03T03:56:22.944Z,16.40
2018-10-03T03:58:50.359Z,16.40
2018-10-03T04:01:17.851Z,16.40
2018-10-03T04:03:45.329Z,16.40
2018-10-03T04:06:12.747Z,16.40
2018-10-03T04:08:40.198Z,16.40
2018-10-03T04:11:07.657Z,16.40
2018-10-03T04:13:41.863Z,16.40
2018-10-03T04:16:09.291Z,16.40
2018-10-03T04:18:36.726Z,16.40
2018-10-03T04:21:04.147Z,16.40
2018-10-03T04:23:31.581Z,16.40
2018-10-03T04:25:59.052Z,16.40
2018-10-03T04:28:26.488Z,16.50
2018-10-03T04:30:53.890Z,16.50
2018-10-03T04:33:21.282Z,16.50
2018-10-03T04:35:48.754Z,16.60
2018-10-03T04:38:16.096Z,16.60
2018-10-03T04:40:43.523Z,16.60
2018-10-03T04:43:10.945Z,16.60
2018-10-03T04:45:38.350Z,16.60
2018-10-03T04:48:05.840Z,16.60
2018-10-03T04:50:33.255Z,16.60
2018-10-03T04:53:00.638Z,16.60
2018-10-03T04:55:28.082Z,16.60
2018-10-03T04:57:55.478Z,16.60
2018-10-03T05:00:22.955Z,16.60
2018-10-03T05:02:50.371Z,16.50
2018-10-03T05:05:17.832Z,16.50
2018-10-03T05:07:45.286Z,16.60
2018-10-03T05:10:12.732Z,16.50
2018-10-03T05:12:40.198Z,16.60
2018-10-03T05:15:07.640Z,16.60
2018-10-03T05:17:35.149Z,16.60
2018-10-03T05:20:02.597Z,16.50
2018-10-03T05:22:30.044Z,16.50
2018-10-03T05:24:57.460Z,16.50
2018-10-03T05:27:24.930Z,16.50
2018-10-03T05:29:52.342Z,16.40
2018-10-03T05:32:19.782Z,16.40
2018-10-03T05:34:47.194Z,16.30
2018-10-03T05:37:14.645Z,16.30
2018-10-03T05:39:42.084Z,16.20
2018-10-03T05:42:09.524Z,16.20
2018-10-03T05:44:36.922Z,16.20
2018-10-03T05:47:04.352Z,16.20
2018-10-03T05:49:31.774Z,16.20
2018-10-03T05:51:59.194Z,16.20
2018-10-03T05:54:26.621Z,16.20
2018-10-03T05:56:54.002Z,16.20
2018-10-03T05:59:21.464Z,16.20
2018-10-03T06:01:48.890Z,16.20
2018-10-03T06:04:16.310Z,16.20
2018-10-03T06:06:43.772Z,16.30
2018-10-03T06:09:12.125Z,16.30
2018-10-03T06:11:40.280Z,16.30
2018-10-03T06:14:07.723Z,16.30
2018-10-03T06:16:35.165Z,16.40
2018-10-03T06:19:02.577Z,16.40
2018-10-03T06:21:30.001Z,16.50
2018-10-03T06:23:57.479Z,16.60
2018-10-03T06:26:24.997Z,16.60
2018-10-03T06:28:52.579Z,16.50
2018-10-03T06:31:20.057Z,16.70
2018-10-03T06:33:47.467Z,16.70
2018-10-03T06:36:14.860Z,16.80
2018-10-03T06:38:42.367Z,16.80
2018-10-03T06:41:09.787Z,16.90
2018-10-03T06:43:37.331Z,17.00
2018-10-03T06:46:04.805Z,17.00
2018-10-03T06:48:32.235Z,17.00
2018-10-03T06:50:59.671Z,17.10
2018-10-03T06:53:27.117Z,17.10
2018-10-03T06:55:54.515Z,17.20
2018-10-03T06:58:22.029Z,17.20
2018-10-03T07:00:49.533Z,17.30
2018-10-03T07:03:16.974Z,17.30
2018-10-03T07:05:44.455Z,17.30
2018-10-03T07:08:11.880Z,17.30
2018-10-03T07:10:39.342Z,17.40
2018-10-03T07:13:06.856Z,17.40
2018-10-03T07:15:34.267Z,17.50
2018-10-03T07:18:01.671Z,17.50
2018-10-03T07:20:29.141Z,17.40
2018-10-03T07:22:56.595Z,17.50
2018-10-03T07:25:24.049Z,17.50
2018-10-03T07:27:51.614Z,17.50
2018-10-03T07:30:19.086Z,17.50
2018-10-03T07:32:46.573Z,17.50
2018-10-03T07:35:13.970Z,17.50
2018-10-03T07:37:41.424Z,17.60
2018-10-03T07:40:08.813Z,17.60
2018-10-03T07:42:36.341Z,17.70
2018-10-03T07:45:03.875Z,17.70
2018-10-03T07:47:31.646Z,17.70
2018-10-03T07:49:59.082Z,17.70
2018-10-03T07:52:26.581Z,17.80
2018-10-03T07:54:54.034Z,17.80
2018-10-03T07:57:21.493Z,17.80
2018-10-03T07:59:48.908Z,17.90
2018-10-03T08:02:16.674Z,17.80
2018-10-03T08:04:44.088Z,17.90
2018-10-03T08:07:11.566Z,17.90
2018-10-03T08:09:38.988Z,17.90
2018-10-03T08:12:06.492Z,17.90
2018-10-03T08:14:33.916Z,17.90
2018-10-03T08:17:01.379Z,17.90
2018-10-03T08:19:28.806Z,17.90
2018-10-03T08:21:56.222Z,18.00
2018-10-03T08:24:23.700Z,18.00
2018-10-03T08:26:51.124Z,18.10
2018-10-03T08:29:18.591Z,18.10
2018-10-03T08:31:46.058Z,18.20
2018-10-03T08:34:13.502Z,18.30
2018-10-03T08:36:40.974Z,18.40
2018-10-03T08:39:10.414Z,18.40
2018-10-03T08:41:37.850Z,18.50
2018-10-03T08:44:05.359Z,18.60
2018-10-03T08:46:32.845Z,18.70
2018-10-03T08:49:00.279Z,18.90
2018-10-03T08:51:27.715Z,19.00
2018-10-03T08:53:55.198Z,19.20
2018-10-03T08:56:22.622Z,19.30
2018-10-03T08:58:50.130Z,19.40
2018-10-03T09:01:17.578Z,19.60
2018-10-03T09:03:45.020Z,19.80
2018-10-03T09:06:12.463Z,20.00
2018-10-03T09:08:39.892Z,20.20
2018-10-03T09:11:07.366Z,20.40
2018-10-03T09:13:34.778Z,20.60
2018-10-03T09:16:02.258Z,20.90
2018-10-03T09:18:29.703Z,21.20
2018-10-03T09:20:57.175Z,21.50
2018-10-03T09:23:24.569Z,21.70
2018-10-03T09:25:52.005Z,21.90
2018-10-03T09:28:19.480Z,22.00
2018-10-03T09:30:46.848Z,22.10
2018-10-03T09:33:14.320Z,22.20
2018-10-03T09:35:41.778Z,22.30
2018-10-03T09:38:09.239Z,22.30
2018-10-03T09:40:36.681Z,22.20
2018-10-03T09:43:04.100Z,22.10
2018-10-03T09:45:31.577Z,21.90
2018-10-03T09:47:59.003Z,21.80
2018-10-03T09:50:26.423Z,21.60
2018-10-03T09:52:53.865Z,21.40
2018-10-03T09:55:21.439Z,21.20
2018-10-03T09:57:48.867Z,21.00
2018-10-03T10:00:21.929Z,20.90
2018-10-03T10:02:49.323Z,20.70
2018-10-03T10:05:16.805Z,20.50
2018-10-03T10:07:44.265Z,20.50
2018-10-03T10:10:11.719Z,20.40
2018-10-03T10:12:39.145Z,20.40
2018-10-03T10:15:06.616Z,20.00
2018-10-03T10:17:34.029Z,20.20
2018-10-03T10:20:01.437Z,20.20
2018-10-03T10:22:28.834Z,20.20
2018-10-03T10:24:56.218Z,20.20
2018-10-03T10:27:23.662Z,20.20
2018-10-03T10:29:51.101Z,20.10
2018-10-03T10:32:18.639Z,20.10
2018-10-03T10:34:45.978Z,20.20
2018-10-03T10:37:13.418Z,20.30
2018-10-03T10:39:40.883Z,20.40
2018-10-03T10:42:08.284Z,20.60
2018-10-03T10:44:35.800Z,20.80
2018-10-03T10:47:03.219Z,21.00
2018-10-03T10:49:30.665Z,21.10
2018-10-03T10:51:58.108Z,21.20
2018-10-03T10:54:25.550Z,21.20
2018-10-03T10:56:53.016Z,21.20
2018-10-03T10:59:20.467Z,21.10
2018-10-03T11:01:47.902Z,21.10
2018-10-03T11:04:15.372Z,21.00
2018-10-03T11:06:43.072Z,21.00
2018-10-03T11:09:10.447Z,20.90
2018-10-03T11:11:37.928Z,20.80
2018-10-03T11:14:05.416Z,20.70
2018-10-03T11:16:32.895Z,20.70
2018-10-03T11:19:00.340Z,20.60
2018-10-03T11:21:27.812Z,20.60
2018-10-03T11:23:55.428Z,20.50
2018-10-03T11:26:22.728Z,20.50
2018-10-03T11:28:50.149Z,20.40
2018-10-03T11:31:17.584Z,20.30
2018-10-03T11:33:45.021Z,20.20
2018-10-03T11:36:12.528Z,20.20
2018-10-03T11:38:40.000Z,20.10
2018-10-03T11:41:07.447Z,20.00
2018-10-03T11:43:34.903Z,20.00
2018-10-03T11:46:02.341Z,20.00
2018-10-03T11:48:29.810Z,19.90
2018-10-03T11:50:57.291Z,19.80
2018-10-03T11:53:24.719Z,19.80
2018-10-03T11:55:52.212Z,19.80
2018-10-03T11:58:19.677Z,19.80
2018-10-03T12:00:47.203Z,19.70
2018-10-03T12:03:14.740Z,19.70
2018-10-03T12:05:42.140Z,19.70
2018-10-03T12:08:09.693Z,19.60
2018-10-03T12:10:37.173Z,19.60
2018-10-03T12:13:04.633Z,19.60
2018-10-03T12:15:32.077Z,19.60
2018-10-03T12:17:59.511Z,19.60
2018-10-03T12:20:26.937Z,19.60
2018-10-03T12:22:54.383Z,19.60
2018-10-03T12:25:21.915Z,19.60
2018-10-03T12:27:49.293Z,19.50
2018-10-03T12:30:16.715Z,19.50
2018-10-03T12:32:44.159Z,19.50
2018-10-03T12:35:11.636Z,19.50
2018-10-03T12:37:39.070Z,19.50
2018-10-03T12:40:06.506Z,19.50
2018-10-03T12:42:33.924Z,19.50
2018-10-03T12:45:01.435Z,19.50
2018-10-03T12:47:28.811Z,19.50
2018-10-03T12:49:56.210Z,19.60
2018-10-03T12:52:23.652Z,19.60
2018-10-03T12:54:51.163Z,19.60
2018-10-03T12:57:18.548Z,19.60
2018-10-03T12:59:46.227Z,19.60
2018-10-03T13:02:13.678Z,19.70
2018-10-03T13:04:41.081Z,19.70
2018-10-03T13:07:08.550Z,19.80
2018-10-03T13:09:36.031Z,19.90
2018-10-03T13:12:03.526Z,18.10
2018-10-03T13:14:30.959Z,20.30
2018-10-03T13:16:58.393Z,20.60
2018-10-03T13:19:25.846Z,20.90
2018-10-03T13:21:53.322Z,21.20
2018-10-03T13:24:20.796Z,21.40
2018-10-03T13:26:48.232Z,21.80
2018-10-03T13:29:15.662Z,22.10
2018-10-03T13:31:43.130Z,22.50
2018-10-03T13:34:10.571Z,23.10
2018-10-03T13:36:38.020Z,23.70
2018-10-03T13:39:07.148Z,24.20
2018-10-03T13:41:34.653Z,24.60
2018-10-03T13:44:02.040Z,24.90
2018-10-03T13:46:29.502Z,25.10
2018-10-03T13:48:56.907Z,25.30
2018-10-03T13:51:24.315Z,25.40
2018-10-03T13:53:51.813Z,25.50
2018-10-03T13:56:19.252Z,25.60
2018-10-03T13:58:46.707Z,25.70
2018-10-03T14:01:14.098Z,25.80
2018-10-03T14:03:41.522Z,26.00
2018-10-03T14:06:08.954Z,26.00
2018-10-03T14:08:36.395Z,26.00
2018-10-03T14:11:03.886Z,25.90
2018-10-03T14:13:31.311Z,25.80
2018-10-03T14:15:58.733Z,25.60
2018-10-03T14:18:26.182Z,25.40
2018-10-03T14:20:53.774Z,25.20
2018-10-03T14:23:21.230Z,25.00
2018-10-03T14:25:48.651Z,24.70
2018-10-03T14:28:17.516Z,24.50
2018-10-03T14:30:45.080Z,24.20
2018-10-03T14:33:12.591Z,24.10
2018-10-03T14:35:40.006Z,23.80
2018-10-03T14:38:07.389Z,23.60
2018-10-03T14:40:34.829Z,23.50
2018-10-03T14:43:02.311Z,23.20
2018-10-03T14:45:29.778Z,23.00
2018-10-03T14:47:57.224Z,22.90
2018-10-03T14:50:24.645Z,22.70
2018-10-03T14:52:52.306Z,22.50
2018-10-03T14:55:19.741Z,22.40
2018-10-03T14:57:47.177Z,22.20
2018-10-03T15:00:14.684Z,22.00
2018-10-03T15:02:42.121Z,21.90
2018-10-03T15:05:09.558Z,21.70
2018-10-03T15:07:37.251Z,21.60
2018-10-03T15:10:04.773Z,21.50
2018-10-03T15:12:32.236Z,21.40
2018-10-03T15:14:59.725Z,21.40
2018-10-03T15:17:27.179Z,21.30
2018-10-03T15:19:54.637Z,21.20
2018-10-03T15:22:22.099Z,21.20
2018-10-03T15:24:49.517Z,21.10
2018-10-03T15:27:16.969Z,21.10
2018-10-03T15:29:44.477Z,21.10
2018-10-03T15:32:11.952Z,21.10
2018-10-03T15:34:39.404Z,21.00
2018-10-03T15:37:06.889Z,21.00
2018-10-03T15:39:34.378Z,21.00
2018-10-03T15:42:01.869Z,21.00
2018-10-03T15:44:29.307Z,21.00
2018-10-03T15:46:56.784Z,21.00
2018-10-03T15:49:24.217Z,21.00
2018-10-03T15:51:51.672Z,20.90
2018-10-03T15:54:19.107Z,20.90
2018-10-03T15:56:46.625Z,20.90
2018-10-03T15:59:14.101Z,20.80
2018-10-03T16:01:41.646Z,20.80
2018-10-03T16:04:09.817Z,20.80
2018-10-03T16:06:37.263Z,20.70
2018-10-03T16:09:05.601Z,20.70
2018-10-03T16:11:33.101Z,20.60
2018-10-03T16:14:00.593Z,20.60
2018-10-03T16:16:28.131Z,20.60
2018-10-03T16:18:55.619Z,20.50
2018-10-03T16:21:23.078Z,20.50
2018-10-03T16:23:50.539Z,20.40
2018-10-03T16:26:18.095Z,20.40
2018-10-03T16:28:45.474Z,20.40
2018-10-03T16:31:12.926Z,20.40
2018-10-03T16:33:40.418Z,20.30
2018-10-03T16:36:07.851Z,20.30
2018-10-03T16:38:35.643Z,22.80
2018-10-03T16:41:03.051Z,20.20
2018-10-03T16:43:30.541Z,20.20
2018-10-03T16:45:57.998Z,20.20
2018-10-03T16:48:25.468Z,20.10
2018-10-03T16:50:52.940Z,20.20
2018-10-03T16:53:20.418Z,20.10
2018-10-03T16:55:47.891Z,20.10
2018-10-03T16:58:15.367Z,20.10
2018-10-03T17:00:42.832Z,20.10
2018-10-03T17:03:10.254Z,20.10
2018-10-03T17:05:37.697Z,20.00
2018-10-03T17:08:05.254Z,20.00
2018-10-03T17:10:33.350Z,20.00
2018-10-03T17:13:00.811Z,20.00
2018-10-03T17:15:28.353Z,20.00
2018-10-03T17:17:55.719Z,19.90
2018-10-03T17:20:23.173Z,19.90
2018-10-03T17:22:50.583Z,19.90
2018-10-03T17:25:18.177Z,19.80
2018-10-03T17:27:45.653Z,19.70
2018-10-03T17:30:13.104Z,19.70
2018-10-03T17:32:40.604Z,19.60
2018-10-03T17:35:08.104Z,19.50
2018-10-03T17:37:35.588Z,19.30
2018-10-03T17:40:03.122Z,17.40
2018-10-03T17:42:30.654Z,19.30
2018-10-03T17:44:58.140Z,19.20
2018-10-03T17:47:25.612Z,19.20
2018-10-03T17:49:53.065Z,19.10
2018-10-03T17:52:21.245Z,19.10
2018-10-03T17:54:48.718Z,19.00
2018-10-03T17:57:16.189Z,19.00
2018-10-03T17:59:43.632Z,18.90
2018-10-03T18:02:12.274Z,18.90
2018-10-03T18:04:39.734Z,18.90
2018-10-03T18:07:07.234Z,18.80
2018-10-03T18:09:34.689Z,18.70
2018-10-03T18:12:02.197Z,18.70
2018-10-03T18:14:29.661Z,18.70
2018-10-03T18:16:57.130Z,18.60
2018-10-03T18:19:24.588Z,18.60
2018-10-03T18:21:52.073Z,18.50
2018-10-03T18:24:19.549Z,18.50
2018-10-03T18:26:47.093Z,18.40
2018-10-03T18:29:14.549Z,18.40
2018-10-03T18:31:41.994Z,18.30
2018-10-03T18:34:09.471Z,18.30
2018-10-03T18:36:37.025Z,18.20
2018-10-03T18:39:06.765Z,18.10
2018-10-03T18:41:34.235Z,18.00
2018-10-03T18:44:01.748Z,18.00
2018-10-03T18:46:29.235Z,17.90
2018-10-03T18:48:56.706Z,17.90
2018-10-03T18:51:24.174Z,17.80
2018-10-03T18:53:51.684Z,17.70
2018-10-03T18:56:19.220Z,17.80
2018-10-03T18:58:46.783Z,17.70
2018-10-03T19:01:14.273Z,17.70
2018-10-03T19:03:41.748Z,17.70
2018-10-03T19:06:09.202Z,17.60
2018-10-03T19:08:36.725Z,17.60
2018-10-03T19:11:04.196Z,17.00
2018-10-03T19:13:31.675Z,17.60
2018-10-03T19:15:59.801Z,17.50
2018-10-03T19:18:27.448Z,17.50
2018-10-03T19:20:55.028Z,17.50
2018-10-03T19:23:22.512Z,17.50
2018-10-03T19:25:49.974Z,17.50
2018-10-03T19:28:17.513Z,17.50
2018-10-03T19:30:45.023Z,17.50
2018-10-03T19:33:12.481Z,17.50
2018-10-03T19:35:40.088Z,17.50
2018-10-03T19:38:07.552Z,17.50
2018-10-03T19:40:35.080Z,17.50
2018-10-03T19:43:02.607Z,17.50
2018-10-03T19:45:30.190Z,17.50
2018-10-03T19:47:57.626Z,17.40
2018-10-03T19:50:25.068Z,17.40
2018-10-03T19:52:52.593Z,17.40
2018-10-03T19:55:20.356Z,17.40
2018-10-03T19:57:47.808Z,17.40
2018-10-03T20:00:15.330Z,17.40
2018-10-03T20:02:43.696Z,17.40
2018-10-03T20:05:11.220Z,17.30
2018-10-03T20:07:38.724Z,17.30
2018-10-03T20:10:06.232Z,17.30
2018-10-03T20:12:33.932Z,17.30
2018-10-03T20:15:01.395Z,17.30
2018-10-03T20:17:29.015Z,17.20
2018-10-03T20:19:56.506Z,17.20
2018-10-03T20:22:23.991Z,17.20
2018-10-03T20:24:51.465Z,17.10
2018-10-03T20:27:19.049Z,17.20
2018-10-03T20:29:46.584Z,15.50
2018-10-03T20:32:14.067Z,17.10
2018-10-03T20:34:41.520Z,17.00
2018-10-03T20:37:09.046Z,17.00
2018-10-03T20:39:36.528Z,17.00
2018-10-03T20:42:03.975Z,17.00
2018-10-03T20:44:31.450Z,17.00
2018-10-03T20:46:58.928Z,17.00
2018-10-03T20:49:26.348Z,17.00
2018-10-03T20:51:53.812Z,17.00
2018-10-03T20:54:21.247Z,17.10
2018-10-03T20:56:48.648Z,17.10
2018-10-03T20:59:16.089Z,17.10
2018-10-03T21:01:43.534Z,17.20
2018-10-03T21:04:11.040Z,17.20
2018-10-03T21:06:38.456Z,17.20
2018-10-03T21:09:07.297Z,17.20
2018-10-03T21:11:34.760Z,17.20
2018-10-03T21:14:02.265Z,17.20
2018-10-03T21:16:29.724Z,17.20
2018-10-03T21:18:57.183Z,17.30
2018-10-03T21:21:24.620Z,17.30
2018-10-03T21:23:52.050Z,17.30
2018-10-03T21:26:19.486Z,17.30
2018-10-03T21:28:46.966Z,17.30
2018-10-03T21:31:14.440Z,17.30
2018-10-03T21:33:41.926Z,17.40
2018-10-03T21:36:09.383Z,17.40
2018-10-03T21:38:36.816Z,17.40
2018-10-03T21:41:04.274Z,17.40
2018-10-03T21:43:31.759Z,17.40
2018-10-03T21:45:59.177Z,17.40
2018-10-03T21:48:26.621Z,17.40
2018-10-03T21:50:54.073Z,17.30
2018-10-03T21:53:21.501Z,17.30
2018-10-03T21:55:48.934Z,17.30
2018-10-03T21:58:16.334Z,17.30
2018-10-03T22:00:49.425Z,17.30
2018-10-03T22:03:16.897Z,17.20
2018-10-03T22:05:44.367Z,17.20
2018-10-03T22:08:12.619Z,17.20
2018-10-03T22:10:40.022Z,17.30
2018-10-03T22:13:07.487Z,17.20
2018-10-03T22:15:34.901Z,17.20
2018-10-03T22:18:02.354Z,17.20
2018-10-03T22:20:29.775Z,17.20
2018-10-03T22:22:57.283Z,17.20
2018-10-03T22:25:24.687Z,17.20
2018-10-03T22:27:52.183Z,17.20
2018-10-03T22:30:19.619Z,17.20
2018-10-03T22:32:47.027Z,17.20
2018-10-03T22:35:14.487Z,17.20
2018-10-03T22:37:41.904Z,17.20
2018-10-03T22:40:09.309Z,17.20
2018-10-03T22:42:36.723Z,17.20
2018-10-03T22:45:04.204Z,17.20
2018-10-03T22:47:31.610Z,17.20
2018-10-03T22:49:59.029Z,17.20
2018-10-03T22:52:26.450Z,17.20
2018-10-03T22:54:53.878Z,17.30
2018-10-03T22:57:21.281Z,17.30
2018-10-03T22:59:48.688Z,17.30
2018-10-03T23:02:16.114Z,17.30
2018-10-03T23:04:43.495Z,17.40
2018-10-03T23:07:10.943Z,17.40
2018-10-03T23:09:38.396Z,17.40
2018-10-03T23:12:06.389Z,17.40
2018-10-03T23:14:33.838Z,17.40
2018-10-03T23:17:01.301Z,17.50
2018-10-03T23:19:28.766Z,17.50
2018-10-03T23:21:56.210Z,17.50
2018-10-03T23:24:23.614Z,17.50
2018-10-03T23:26:51.116Z,17.50
2018-10-03T23:29:18.519Z,17.50
2018-10-03T23:31:45.999Z,17.60
2018-10-03T23:34:13.393Z,17.60
2018-10-03T23:36:40.815Z,17.60
2018-10-03T23:39:09.834Z,17.60
2018-10-03T23:41:37.593Z,17.60
2018-10-03T23:44:05.048Z,17.60
2018-10-03T23:46:32.461Z,17.60
2018-10-03T23:48:59.881Z,17.70
2018-10-03T23:51:27.291Z,17.70
2018-10-03T23:53:54.697Z,17.70
2018-10-03T23:56:22.115Z,17.70
2018-10-03T23:58:49.521Z,17.70
